createdAt,value
2023-04-06T00:00:38.928Z,0.40
2023-04-06T00:03:07.652Z,0.40
2023-04-06T00:05:36.200Z,0.40
2023-04-06T00:08:04.972Z,0.30
2023-04-06T00:10:33.808Z,0.20
2023-04-06T00:13:03.830Z,0.30
2023-04-06T00:15:32.368Z,0.20
2023-04-06T00:18:00.954Z,0.20
2023-04-06T00:20:29.540Z,0.00
2023-04-06T00:22:58.050Z,-0.10
2023-04-06T00:25:26.654Z,-0.30
2023-04-06T00:27:55.231Z,-0.30
2023-04-06T00:33:37.699Z,-0.20
2023-04-06T00:36:06.792Z,-0.20
2023-04-06T00:38:35.371Z,-0.20
2023-04-06T00:41:05.845Z,-0.30
2023-04-06T00:43:41.361Z,-0.30
2023-04-06T00:46:10.677Z,-0.30
2023-04-06T00:48:41.867Z,-0.40
2023-04-06T00:51:10.388Z,-0.40
2023-04-06T00:53:38.958Z,-0.50
2023-04-06T00:56:10.859Z,-0.50
2023-04-06T01:14:56.888Z,-0.40
2023-04-06T01:17:26.988Z,-0.40
2023-04-06T01:19:55.826Z,-0.40
2023-04-06T01:22:30.918Z,-0.40
2023-04-06T01:25:02.768Z,-0.40
2023-04-06T01:27:41.327Z,-0.40
2023-04-06T01:30:15.713Z,-0.40
2023-04-06T01:32:52.371Z,-0.40
2023-04-06T01:35:33.006Z,-0.40
2023-04-06T01:38:14.219Z,-0.50
2023-04-06T01:40:42.828Z,-0.60
2023-04-06T01:43:12.330Z,-0.60
2023-04-06T01:45:59.485Z,-0.60
2023-04-06T01:48:32.851Z,-0.70
2023-04-06T01:51:04.428Z,-0.70
2023-04-06T01:53:38.438Z,-0.70
2023-04-06T01:56:08.990Z,-0.70
2023-04-06T01:58:41.718Z,-0.70
2023-04-06T02:01:11.963Z,-0.70
2023-04-06T02:03:52.071Z,-0.70
2023-04-06T02:06:20.883Z,-0.70
2023-04-06T02:08:51.902Z,-0.70
2023-04-06T02:11:21.579Z,-0.80
2023-04-06T02:13:53.139Z,-0.80
2023-04-06T02:16:41.755Z,-0.80
2023-04-06T02:19:10.547Z,-0.80
2023-04-06T02:21:39.338Z,-0.90
2023-04-06T02:24:09.785Z,-0.90
2023-04-06T02:26:38.424Z,-0.90
2023-04-06T02:29:07.338Z,-0.90
2023-04-06T02:31:36.391Z,-0.90
2023-04-06T02:34:05.458Z,-1.00
2023-04-06T02:36:35.564Z,-1.00
2023-04-06T02:39:04.422Z,-1.00
2023-04-06T02:41:35.035Z,-1.10
2023-04-06T02:44:05.897Z,-1.10
2023-04-06T02:46:40.493Z,-1.10
2023-04-06T02:49:09.468Z,-1.10
2023-04-06T02:51:38.474Z,-1.20
2023-04-06T02:54:17.677Z,-1.10
2023-04-06T02:56:47.817Z,-1.20
2023-04-06T02:59:16.735Z,-1.20
2023-04-06T03:01:52.880Z,-1.20
2023-04-06T03:04:23.487Z,-1.20
2023-04-06T03:06:52.820Z,-1.10
2023-04-06T03:09:34.312Z,-1.10
2023-04-06T03:12:06.104Z,-1.10
2023-04-06T03:14:46.763Z,-1.10
2023-04-06T03:17:15.777Z,-1.10
2023-04-06T03:19:44.577Z,-1.10
2023-04-06T03:22:14.552Z,-1.10
2023-04-06T03:24:43.337Z,-1.10
2023-04-06T03:27:13.218Z,-1.00
2023-04-06T03:29:43.273Z,-1.00
2023-04-06T03:32:15.330Z,-1.00
2023-04-06T03:34:44.165Z,-1.00
2023-04-06T03:37:12.688Z,-1.00
2023-04-06T03:39:47.916Z,-1.00
2023-04-06T03:42:24.639Z,-1.00
2023-04-06T03:44:57.252Z,-1.00
2023-04-06T03:47:26.729Z,-1.00
2023-04-06T03:49:59.552Z,-1.00
2023-04-06T03:52:28.362Z,-1.00
2023-04-06T03:54:56.896Z,-1.00
2023-04-06T03:57:26.745Z,-1.00
2023-04-06T03:59:55.445Z,-1.10
2023-04-06T04:02:24.168Z,-1.10
2023-04-06T04:04:52.860Z,-1.10
2023-04-06T04:07:21.479Z,-1.10
2023-04-06T04:09:49.997Z,-1.00
2023-04-06T04:12:18.479Z,-1.00
2023-04-06T04:14:48.554Z,-1.00
2023-04-06T04:17:17.182Z,-1.00
2023-04-06T04:19:45.810Z,-0.90
2023-04-06T04:22:16.830Z,-0.90
2023-04-06T04:24:46.202Z,-0.80
2023-04-06T04:27:15.743Z,-0.80
2023-04-06T04:29:45.247Z,-0.80
2023-04-06T04:32:17.176Z,-0.80
2023-04-06T04:34:46.920Z,-0.80
2023-04-06T04:37:27.924Z,-0.80
2023-04-06T04:39:58.424Z,-0.90
2023-04-06T04:42:27.087Z,-0.90
2023-04-06T04:44:59.144Z,-0.80
2023-04-06T04:47:39.882Z,-0.80
2023-04-06T04:50:10.864Z,-0.80
2023-04-06T04:52:43.059Z,-0.70
2023-04-06T04:55:30.339Z,-0.60
2023-04-06T04:58:01.139Z,-0.50
2023-04-06T05:00:49.978Z,-0.30
2023-04-06T05:03:24.317Z,-0.20
2023-04-06T05:06:02.569Z,0.10
2023-04-06T05:08:35.409Z,0.30
2023-04-06T05:11:05.479Z,0.60
2023-04-06T05:13:38.917Z,1.00
2023-04-06T05:16:19.304Z,1.40
2023-04-06T05:18:50.100Z,1.60
2023-04-06T05:21:18.720Z,1.80
2023-04-06T05:24:08.293Z,2.20
2023-04-06T05:26:36.922Z,2.40
2023-04-06T05:29:12.065Z,2.90
2023-04-06T05:31:41.307Z,3.10
2023-04-06T05:34:13.564Z,3.10
2023-04-06T05:36:42.542Z,3.40
2023-04-06T05:39:19.750Z,3.60
2023-04-06T05:41:52.412Z,3.50
2023-04-06T05:44:32.294Z,4.00
2023-04-06T05:47:08.215Z,4.40
2023-04-06T05:49:40.271Z,4.70
2023-04-06T05:52:14.354Z,5.30
2023-04-06T05:54:46.764Z,5.80
2023-04-06T05:57:15.844Z,6.30
2023-04-06T05:59:44.705Z,7.00
2023-04-06T06:02:15.454Z,7.20
2023-04-06T06:04:49.287Z,7.60
2023-04-06T06:07:19.448Z,8.00
2023-04-06T06:09:58.942Z,8.80
2023-04-06T06:12:32.852Z,8.90
2023-04-06T06:15:02.740Z,8.10
2023-04-06T06:17:35.964Z,7.20
2023-04-06T06:20:08.796Z,6.70
2023-04-06T06:22:37.596Z,6.70
2023-04-06T06:25:06.757Z,6.60
2023-04-06T06:27:35.560Z,6.20
2023-04-06T06:30:06.456Z,5.50
2023-04-06T06:32:35.451Z,5.40
2023-04-06T06:35:04.220Z,5.00
2023-04-06T06:37:34.239Z,5.10
2023-04-06T06:40:04.139Z,5.20
2023-04-06T06:42:34.404Z,5.00
2023-04-06T06:45:23.250Z,5.30
2023-04-06T06:47:54.412Z,5.50
2023-04-06T06:50:23.865Z,5.50
2023-04-06T06:52:53.817Z,5.60
2023-04-06T06:55:22.824Z,5.60
2023-04-06T06:57:51.961Z,5.70
2023-04-06T07:00:21.955Z,5.60
2023-04-06T07:02:51.734Z,5.30
2023-04-06T07:05:28.030Z,4.90
2023-04-06T07:08:00.542Z,4.80
2023-04-06T07:10:29.329Z,4.90
2023-04-06T07:12:58.188Z,4.40
2023-04-06T07:15:27.144Z,4.30
2023-04-06T07:17:56.828Z,4.40
2023-04-06T07:20:26.230Z,4.00
2023-04-06T07:22:55.351Z,3.70
2023-04-06T07:25:26.055Z,3.80
2023-04-06T07:27:54.729Z,4.00
2023-04-06T07:30:26.164Z,4.10
2023-04-06T07:32:58.790Z,4.20
2023-04-06T07:35:29.077Z,3.80
2023-04-06T07:37:57.960Z,3.80
2023-04-06T07:40:28.346Z,3.70
2023-04-06T07:42:58.791Z,3.60
2023-04-06T07:45:27.557Z,4.10
2023-04-06T07:47:56.944Z,4.20
2023-04-06T07:50:27.444Z,4.30
2023-04-06T07:52:56.993Z,4.40
2023-04-06T07:55:27.056Z,4.70
2023-04-06T07:57:55.590Z,4.80
2023-04-06T08:00:24.467Z,4.70
2023-04-06T08:02:53.136Z,4.60
2023-04-06T08:05:21.944Z,4.60
2023-04-06T08:07:50.506Z,4.50
2023-04-06T08:10:19.035Z,4.60
2023-04-06T08:12:48.954Z,4.70
2023-04-06T08:15:19.220Z,4.60
2023-04-06T08:17:47.797Z,4.60
2023-04-06T08:20:16.607Z,4.50
2023-04-06T08:22:45.319Z,4.40
2023-04-06T08:25:13.769Z,4.30
2023-04-06T08:27:42.335Z,4.40
2023-04-06T08:30:12.734Z,4.50
2023-04-06T08:32:42.321Z,4.60
2023-04-06T08:35:11.116Z,4.50
2023-04-06T08:37:39.685Z,4.40
2023-04-06T08:40:09.667Z,4.30
2023-04-06T08:42:43.232Z,4.40
2023-04-06T08:45:13.680Z,4.40
2023-04-06T08:47:42.458Z,4.60
2023-04-06T08:50:12.872Z,4.50
2023-04-06T08:52:42.679Z,4.60
2023-04-06T08:55:11.524Z,4.60
2023-04-06T08:57:40.897Z,4.50
2023-04-06T09:00:13.424Z,4.40
2023-04-06T09:02:44.626Z,4.60
2023-04-06T09:05:14.330Z,4.80
2023-04-06T09:07:42.928Z,4.80
2023-04-06T09:10:11.634Z,4.90
2023-04-06T09:12:40.518Z,5.00
2023-04-06T09:15:24.417Z,5.00
2023-04-06T09:17:55.667Z,4.90
2023-04-06T09:20:27.377Z,5.00
2023-04-06T09:22:56.209Z,5.10
2023-04-06T09:25:27.574Z,5.00
2023-04-06T09:28:03.071Z,5.20
2023-04-06T09:30:33.209Z,5.10
2023-04-06T09:33:01.751Z,5.30
2023-04-06T09:35:32.360Z,5.30
2023-04-06T09:38:01.050Z,5.30
2023-04-06T09:40:30.288Z,5.30
2023-04-06T09:43:00.476Z,5.20
2023-04-06T10:17:38.089Z,5.80
2023-04-06T10:20:10.851Z,5.60
2023-04-06T10:22:44.583Z,5.20
2023-04-06T10:25:13.192Z,5.10
2023-04-06T10:27:41.736Z,5.40
2023-04-06T10:30:10.470Z,5.10
2023-04-06T10:32:41.235Z,5.10
2023-04-06T10:35:11.292Z,5.40
2023-04-06T10:37:53.120Z,5.40
2023-04-06T10:40:27.080Z,5.40
2023-04-06T10:42:56.713Z,5.30
2023-04-06T10:45:26.685Z,5.40
2023-04-06T10:47:57.071Z,5.40
2023-04-06T10:50:26.019Z,5.30
2023-04-06T10:53:04.883Z,5.40
2023-04-06T10:55:33.612Z,5.40
2023-04-06T10:58:02.233Z,5.40
2023-04-06T11:00:43.096Z,5.60
2023-04-06T11:03:17.912Z,5.90
2023-04-06T11:05:48.161Z,6.00
2023-04-06T11:08:27.842Z,5.90
2023-04-06T11:11:07.721Z,5.50
2023-04-06T11:13:41.203Z,5.30
2023-04-06T11:16:14.484Z,5.60
2023-04-06T11:18:55.872Z,5.50
2023-04-06T11:21:35.774Z,5.60
2023-04-06T11:24:09.240Z,5.70
2023-04-06T11:26:42.304Z,5.80
2023-04-06T11:29:11.198Z,6.10
2023-04-06T11:31:43.871Z,6.30
2023-04-06T11:34:15.221Z,6.20
2023-04-06T11:36:45.089Z,6.20
2023-04-06T11:39:14.688Z,6.00
2023-04-06T11:41:43.395Z,6.10
2023-04-06T11:44:11.912Z,6.00
2023-04-06T11:46:40.805Z,6.30
2023-04-06T11:49:09.428Z,6.50
2023-04-06T11:51:39.708Z,6.40
2023-04-06T11:54:08.208Z,6.50
2023-04-06T11:56:36.766Z,6.40
2023-04-06T11:59:05.531Z,6.40
2023-04-06T12:01:38.880Z,6.40
2023-04-06T12:04:07.829Z,6.40
2023-04-06T12:06:36.349Z,6.40
2023-04-06T12:09:06.245Z,6.50
2023-04-06T12:11:34.801Z,6.50
2023-04-06T12:14:05.843Z,6.50
2023-04-06T12:16:34.481Z,6.50
2023-04-06T12:19:05.018Z,6.80
2023-04-06T12:21:34.215Z,6.90
2023-04-06T12:24:03.013Z,6.80
2023-04-06T12:26:33.667Z,6.90
2023-04-06T12:29:07.566Z,7.10
2023-04-06T12:31:39.941Z,7.40
2023-04-06T12:34:09.040Z,7.10
2023-04-06T12:36:38.866Z,6.90
2023-04-06T12:39:07.593Z,6.60
2023-04-06T12:41:37.492Z,6.60
2023-04-06T12:44:06.164Z,6.60
2023-04-06T12:46:34.806Z,6.90
2023-04-06T12:49:04.224Z,7.10
2023-04-06T12:51:33.277Z,7.10
2023-04-06T12:54:02.085Z,7.00
2023-04-06T12:56:30.989Z,6.90
2023-04-06T13:02:07.633Z,6.90
2023-04-06T13:04:36.289Z,7.10
2023-04-06T13:07:04.830Z,7.10
2023-04-06T13:09:33.458Z,7.20
2023-04-06T13:12:02.127Z,7.00
2023-04-06T13:14:30.733Z,6.80
2023-04-06T13:16:59.618Z,6.90
2023-04-06T13:19:29.641Z,6.90
2023-04-06T13:21:58.194Z,6.70
2023-04-06T13:24:26.746Z,6.60
2023-04-06T13:26:55.354Z,6.60
2023-04-06T13:29:23.917Z,6.70
2023-04-06T13:31:52.433Z,6.90
2023-04-06T13:34:21.068Z,6.90
2023-04-06T13:36:50.979Z,7.00
2023-04-06T13:39:19.498Z,6.80
2023-04-06T13:41:48.089Z,6.80
2023-04-06T13:44:17.166Z,6.80
2023-04-06T13:46:45.671Z,6.80
2023-04-06T13:49:14.211Z,6.90
2023-04-06T13:51:43.225Z,6.80
2023-04-06T13:54:13.278Z,7.00
2023-04-06T13:56:41.792Z,7.00
2023-04-06T13:59:10.408Z,7.00
2023-04-06T14:01:39.789Z,7.10
2023-04-06T14:04:08.504Z,7.10
2023-04-06T14:06:37.257Z,7.00
2023-04-06T14:09:06.016Z,6.90
2023-04-06T14:11:36.375Z,6.90
2023-04-06T14:14:05.020Z,6.90
2023-04-06T14:16:33.630Z,7.00
2023-04-06T14:19:02.674Z,6.90
2023-04-06T14:21:32.474Z,6.80
2023-04-06T14:24:01.114Z,6.90
2023-04-06T14:26:29.927Z,6.90
2023-04-06T14:29:01.129Z,6.80
2023-04-06T14:31:29.789Z,6.90
2023-04-06T14:33:58.755Z,6.90
2023-04-06T14:36:28.407Z,7.00
2023-04-06T14:38:57.155Z,6.80
2023-04-06T14:41:27.070Z,6.80
2023-04-06T14:43:55.705Z,7.00
2023-04-06T14:46:25.771Z,7.00
2023-04-06T14:48:54.397Z,7.10
2023-04-06T14:51:30.023Z,7.00
2023-04-06T14:53:58.898Z,7.00
2023-04-06T14:56:27.505Z,6.80
2023-04-06T14:58:58.153Z,6.70
2023-04-06T15:01:28.205Z,6.70
2023-04-06T15:03:56.887Z,6.70
2023-04-06T15:06:50.582Z,6.70
2023-04-06T15:09:19.177Z,6.60
2023-04-06T15:11:47.814Z,6.70
2023-04-06T15:14:16.392Z,6.90
2023-04-06T15:16:46.292Z,6.80
2023-04-06T15:19:14.925Z,6.80
2023-04-06T15:21:43.537Z,6.80
2023-04-06T15:24:12.051Z,6.70
2023-04-06T15:26:40.566Z,6.70
2023-04-06T15:29:09.370Z,6.70
2023-04-06T15:31:39.192Z,6.70
2023-04-06T15:34:09.827Z,6.60
2023-04-06T15:36:38.664Z,6.50
2023-04-06T15:39:09.880Z,6.40
2023-04-06T15:41:38.897Z,6.40
2023-04-06T15:44:07.496Z,6.50
2023-04-06T15:46:36.091Z,6.40
2023-04-06T15:49:05.095Z,6.40
2023-04-06T15:51:35.009Z,6.40
2023-04-06T15:54:03.711Z,6.30
2023-04-06T15:56:34.022Z,6.40
2023-04-06T15:59:04.345Z,6.40
2023-04-06T16:01:33.007Z,6.40
2023-04-06T16:04:01.735Z,6.40
2023-04-06T16:06:32.277Z,6.40
2023-04-06T16:09:02.485Z,6.40
2023-04-06T16:11:32.414Z,6.40
2023-04-06T16:14:01.154Z,6.30
2023-04-06T16:16:29.841Z,6.30
2023-04-06T16:18:58.426Z,6.20
2023-04-06T16:21:27.994Z,6.30
2023-04-06T16:23:58.541Z,6.30
2023-04-06T16:26:29.838Z,6.20
2023-04-06T16:28:59.768Z,6.20
2023-04-06T16:31:28.331Z,6.20
2023-04-06T16:33:58.272Z,6.20
2023-04-06T16:36:28.060Z,6.20
2023-04-06T16:38:56.884Z,6.20
2023-04-06T16:41:26.721Z,6.20
2023-04-06T16:43:57.740Z,6.10
2023-04-06T16:46:31.503Z,6.10
2023-04-06T16:49:00.687Z,6.00
2023-04-06T16:51:29.378Z,5.90
2023-04-06T16:53:58.074Z,5.90
2023-04-06T16:56:27.933Z,5.90
2023-04-06T16:58:57.983Z,5.90
2023-04-06T17:01:29.748Z,5.90
2023-04-06T17:03:59.735Z,5.90
2023-04-06T17:06:29.146Z,5.80
2023-04-06T17:09:00.042Z,5.80
2023-04-06T17:11:39.834Z,5.80
2023-04-06T17:14:18.340Z,5.80
2023-04-06T17:16:46.967Z,5.70
2023-04-06T17:19:15.522Z,5.70
2023-04-06T17:21:44.034Z,5.60
2023-04-06T17:24:12.496Z,5.70
2023-04-06T17:26:41.625Z,5.60
2023-04-06T17:29:10.165Z,5.70
2023-04-06T17:31:40.057Z,5.60
2023-04-06T17:34:10.229Z,5.60
2023-04-06T17:36:38.797Z,5.60
2023-04-06T17:39:07.290Z,5.60
2023-04-06T17:41:35.827Z,5.50
2023-04-06T17:44:04.369Z,5.50
2023-04-06T17:46:33.010Z,5.50
2023-04-06T17:49:02.990Z,5.50
2023-04-06T17:51:31.757Z,5.50
2023-04-06T17:54:00.312Z,5.50
2023-04-06T17:56:29.400Z,5.40
2023-04-06T17:58:58.396Z,5.40
2023-04-06T18:01:27.368Z,5.30
2023-04-06T18:03:56.446Z,5.20
2023-04-06T18:12:34.863Z,5.10
2023-04-06T18:15:03.497Z,5.10
2023-04-06T18:17:32.512Z,5.10
2023-04-06T18:20:01.479Z,5.10
2023-04-06T18:22:33.409Z,5.10
2023-04-06T18:25:02.475Z,5.00
2023-04-06T18:27:31.968Z,5.00
2023-04-06T18:30:02.071Z,5.00
2023-04-06T18:32:31.835Z,5.00
2023-04-06T18:35:00.688Z,5.00
2023-04-06T18:37:29.168Z,4.90
2023-04-06T18:39:57.720Z,4.90
2023-04-06T18:42:26.292Z,4.90
2023-04-06T18:44:54.900Z,4.90
2023-04-06T18:47:24.867Z,4.80
2023-04-06T18:49:53.590Z,4.70
2023-04-06T18:52:22.203Z,4.60
2023-04-06T18:54:50.809Z,4.50
2023-04-06T18:57:19.334Z,4.40
2023-04-06T18:59:48.043Z,4.40
2023-04-06T19:02:16.664Z,4.30
2023-04-06T19:04:50.460Z,4.10
2023-04-06T19:07:19.273Z,4.00
2023-04-06T19:09:47.902Z,3.90
2023-04-06T19:12:16.549Z,3.80
2023-04-06T19:14:51.637Z,3.70
2023-04-06T19:17:21.214Z,3.60
2023-04-06T19:19:57.828Z,3.50
2023-04-06T19:22:26.496Z,3.50
2023-04-06T19:24:54.952Z,3.40
2023-04-06T19:27:23.628Z,3.40
2023-04-06T19:29:52.249Z,3.40
2023-04-06T19:32:21.047Z,3.40
2023-04-06T19:34:50.346Z,3.40
2023-04-06T19:37:20.370Z,3.40
2023-04-06T19:39:49.165Z,3.30
2023-04-06T19:42:21.509Z,3.30
2023-04-06T19:44:50.455Z,3.30
2023-04-06T19:47:19.453Z,3.30
2023-04-06T19:49:48.035Z,3.30
2023-04-06T19:52:16.856Z,3.30
2023-04-06T19:54:47.101Z,3.20
2023-04-06T19:57:15.765Z,3.20
2023-04-06T19:59:44.256Z,3.10
2023-04-06T20:02:12.878Z,3.10
2023-04-06T20:04:42.602Z,3.10
2023-04-06T20:07:11.259Z,3.00
2023-04-06T20:09:39.824Z,3.00
2023-04-06T20:12:09.791Z,3.00
2023-04-06T20:14:38.464Z,3.00
2023-04-06T20:17:07.088Z,3.00
2023-04-06T20:19:35.684Z,3.00
2023-04-06T20:22:05.044Z,3.00
2023-04-06T20:24:41.884Z,3.10
2023-04-06T20:27:11.782Z,2.90
2023-04-06T20:29:40.409Z,3.10
2023-04-06T20:32:09.147Z,3.00
2023-04-06T20:34:37.759Z,3.00
2023-04-06T20:37:06.384Z,3.10
2023-04-06T20:39:36.196Z,3.00
2023-04-06T20:42:05.500Z,3.10
2023-04-06T20:44:35.690Z,3.00
2023-04-06T20:47:04.689Z,3.10
2023-04-06T20:49:33.238Z,3.10
2023-04-06T20:52:02.498Z,3.10
2023-04-06T20:54:31.107Z,3.20
2023-04-06T20:57:01.098Z,3.10
2023-04-06T20:59:29.690Z,3.10
2023-04-06T21:01:59.685Z,3.10
2023-04-06T21:04:28.384Z,3.10
2023-04-06T21:06:57.018Z,3.20
2023-04-06T21:09:26.892Z,3.20
2023-04-06T21:11:55.404Z,3.10
2023-04-06T21:14:24.289Z,3.10
2023-04-06T21:16:53.655Z,3.20
2023-04-06T21:19:23.862Z,3.10
2023-04-06T21:21:52.374Z,3.10
2023-04-06T21:24:20.930Z,3.10
2023-04-06T21:26:49.575Z,3.00
2023-04-06T21:29:18.095Z,3.10
2023-04-06T21:31:46.661Z,3.00
2023-04-06T21:34:16.240Z,3.00
2023-04-06T21:36:46.689Z,3.00
2023-04-06T21:39:15.234Z,3.00
2023-04-06T21:41:43.733Z,3.00
2023-04-06T21:44:12.170Z,2.90
2023-04-06T21:46:40.747Z,2.90
2023-04-06T21:49:09.274Z,2.80
2023-04-06T21:51:37.730Z,2.80
2023-04-06T21:54:07.793Z,2.70
2023-04-06T21:56:36.427Z,2.60
2023-04-06T21:59:04.980Z,2.50
2023-04-06T22:01:33.696Z,2.40
2023-04-06T22:04:02.683Z,2.30
2023-04-06T22:06:31.672Z,2.20
2023-04-06T22:09:01.271Z,2.10
2023-04-06T22:11:31.166Z,2.00
2023-04-06T22:14:01.744Z,1.90
2023-04-06T22:16:30.294Z,1.90
2023-04-06T22:18:58.790Z,1.80
2023-04-06T22:21:27.420Z,1.80
2023-04-06T22:23:55.917Z,1.80
2023-04-06T22:26:24.999Z,1.80
2023-04-06T22:28:54.948Z,1.80
2023-04-06T22:31:23.480Z,1.80
2023-04-06T22:33:52.329Z,1.70
2023-04-06T22:36:20.916Z,1.70
2023-04-06T22:38:51.008Z,1.70
2023-04-06T22:41:19.544Z,1.70
2023-04-06T22:43:48.074Z,1.70
2023-04-06T22:46:17.958Z,1.70
2023-04-06T22:48:46.520Z,1.70
2023-04-06T22:51:15.040Z,1.70
2023-04-06T22:53:43.514Z,1.60
2023-04-06T22:56:12.010Z,1.70
2023-04-06T22:58:40.515Z,1.70
2023-04-06T23:01:09.072Z,1.70
2023-04-06T23:03:39.027Z,1.70
2023-04-06T23:06:08.015Z,1.70
2023-04-06T23:08:36.488Z,1.70
2023-04-06T23:11:05.093Z,1.70
2023-04-06T23:13:33.549Z,1.70
2023-04-06T23:16:02.247Z,1.70
2023-04-06T23:21:44.459Z,1.80
2023-04-06T23:24:13.040Z,1.80
2023-04-06T23:26:41.704Z,1.90
2023-04-06T23:29:10.203Z,1.90
2023-04-06T23:31:38.730Z,1.90
2023-04-06T23:34:07.428Z,1.90
2023-04-06T23:36:36.133Z,1.90
2023-04-06T23:39:06.167Z,1.90
2023-04-06T23:41:34.691Z,1.90
2023-04-06T23:44:03.270Z,1.90
2023-04-06T23:46:31.794Z,1.90
2023-04-06T23:49:00.260Z,1.80
2023-04-06T23:51:28.786Z,1.80
2023-04-06T23:53:58.016Z,1.70
2023-04-06T23:56:28.078Z,1.70
2023-04-06T23:58:56.591Z,1.70
